Time;durP1;ratioP1;P1;durP2;ratioP2;P2;SDS_P1;SDS_P2;PMS_P1;PMS_P2;Temp;Humidity;BMP_temperature;BMP_pressure;BME280_temperature;BME280_humidity;BME280_pressure;Samples;Min_cycle;Max_cycle;Signal;HPM_P1;HPM_P2
2022/07/23 00:00:29;;;;;;;6.43;5.00;;;;;;;20.52;49.91;95080.69;5151410;27;20552;-74
2022/07/23 00:02:55;;;;;;;5.65;4.97;;;;;;;20.51;49.93;95078.25;5151374;27;20049;-75
2022/07/23 00:05:20;;;;;;;9.25;5.50;;;;;;;20.55;50.01;95091.94;5151500;27;20030;-74
2022/07/23 00:07:45;;;;;;;7.18;5.22;;;;;;;20.53;50.06;95082.38;5151435;27;20483;-74
2022/07/23 00:10:11;;;;;;;7.45;5.13;;;;;;;20.51;50.27;95094.91;5134213;27;20476;-74
2022/07/23 00:12:36;;;;;;;7.28;4.95;;;;;;;20.56;50.06;95085.63;5133984;27;20075;-74
2022/07/23 00:15:03;;;;;;;5.90;5.05;;;;;;;20.47;50.19;95087.50;5134152;27;20095;-74
2022/07/23 00:17:28;;;;;;;6.25;5.25;;;;;;;20.53;50.21;95092.09;5133962;27;20042;-74
2022/07/23 00:19:54;;;;;;;7.28;5.50;;;;;;;20.51;50.21;95096.72;5141680;27;20035;-74
2022/07/23 00:22:19;;;;;;;8.23;4.97;;;;;;;20.51;50.09;95105.44;5130424;28;20027;-74
2022/07/23 00:24:45;;;;;;;8.15;4.85;;;;;;;20.42;50.21;95103.06;5096422;28;20488;-74
2022/07/23 00:27:10;;;;;;;7.30;5.38;;;;;;;20.38;50.41;95099.97;5130519;28;20042;-74
2022/07/23 00:29:36;;;;;;;7.25;4.72;;;;;;;20.29;50.38;95106.34;5113357;28;20050;-74
2022/07/23 00:32:01;;;;;;;9.80;5.20;;;;;;;20.25;50.17;95112.97;5130415;27;20026;-74
2022/07/23 00:34:26;;;;;;;10.40;5.30;;;;;;;20.19;50.47;95111.84;5096259;28;20039;-74
2022/07/23 00:36:53;;;;;;;7.30;5.47;;;;;;;19.98;51.38;95111.75;5131625;27;20030;-74
2022/07/23 00:39:21;;;;;;;8.68;5.50;;;;;;;19.93;51.81;95122.00;5130271;27;20043;-74
2022/07/23 00:41:46;;;;;;;6.70;5.45;;;;;;;19.95;51.15;95109.47;5130299;28;20168;-74
2022/07/23 00:44:30;;;;;;;8.52;5.90;;;;;;;19.93;51.48;95112.25;5113239;28;20031;-74
2022/07/23 00:46:57;;;;;;;7.78;5.55;;;;;;;19.94;51.28;95095.44;5096327;28;20027;-74
2022/07/23 00:49:23;;;;;;;7.88;5.30;;;;;;;20.02;51.43;95113.81;5113285;28;20035;-74
2022/07/23 00:51:49;;;;;;;8.52;5.30;;;;;;;19.98;51.42;95107.28;5113282;28;20059;-74
2022/07/23 00:54:18;;;;;;;6.50;5.70;;;;;;;19.96;51.40;95103.19;5113035;28;20078;-74
2022/07/23 00:56:44;;;;;;;7.88;5.13;;;;;;;20.07;51.21;95108.84;5131406;27;20062;-74
2022/07/23 00:59:10;;;;;;;8.05;5.18;;;;;;;20.05;51.25;95107.38;5129979;28;20047;-74
2022/07/23 01:01:36;;;;;;;7.47;5.50;;;;;;;20.01;51.48;95109.56;5095869;28;20038;-74
2022/07/23 01:04:01;;;;;;;6.80;5.00;;;;;;;19.94;51.63;95102.53;5096094;28;20035;-74
2022/07/23 01:06:27;;;;;;;6.55;5.05;;;;;;;19.92;51.74;95097.44;5116711;27;20526;-74
2022/07/23 01:08:53;;;;;;;6.20;5.45;;;;;;;19.90;51.96;95102.06;5116679;27;20035;-74
2022/07/23 01:11:19;;;;;;;7.63;5.15;;;;;;;19.86;52.29;95098.13;5133858;27;20034;-74
2022/07/23 01:13:44;;;;;;;6.70;5.60;;;;;;;19.76;52.54;95092.31;5134027;27;20035;-74
2022/07/23 01:16:10;;;;;;;8.70;5.50;;;;;;;19.77;52.71;95099.22;5133802;27;20019;-74
2022/07/23 01:18:35;;;;;;;6.35;5.05;;;;;;;19.75;52.91;95095.91;5133613;27;20035;-74
2022/07/23 01:21:01;;;;;;;6.15;5.03;;;;;;;19.72;52.78;95091.81;5153021;27;20026;-74
2022/07/23 01:23:26;;;;;;;6.95;5.60;;;;;;;19.79;52.50;95094.59;5119896;27;20477;-74
2022/07/23 01:25:52;;;;;;;8.20;5.47;;;;;;;19.76;52.56;95087.03;5136918;27;20031;-74
2022/07/23 01:28:17;;;;;;;7.07;5.45;;;;;;;19.81;52.40;95084.69;5154275;27;20022;-74
2022/07/23 01:30:43;;;;;;;6.57;5.13;;;;;;;19.68;52.67;95093.19;5154152;27;20031;-74
2022/07/23 01:33:08;;;;;;;6.07;5.20;;;;;;;19.63;52.94;95093.66;5154024;27;20034;-74
2022/07/23 01:35:34;;;;;;;6.97;5.38;;;;;;;19.49;52.99;95073.34;5155260;27;20031;-74
2022/07/23 01:37:59;;;;;;;7.40;5.38;;;;;;;19.51;52.83;95071.38;5154183;27;20029;-74
2022/07/23 01:40:25;;;;;;;8.60;5.97;;;;;;;19.50;53.04;95077.66;5154183;27;20479;-74
2022/07/23 01:42:50;;;;;;;9.68;5.50;;;;;;;19.40;53.44;95083.13;5155111;27;20030;-74
2022/07/23 01:45:15;;;;;;;9.43;5.60;;;;;;;19.35;53.33;95071.47;5119648;27;20042;-74
2022/07/23 01:47:41;;;;;;;6.70;5.88;;;;;;;19.33;53.47;95074.28;5153902;27;20075;-74
2022/07/23 01:50:07;;;;;;;7.18;5.40;;;;;;;19.29;53.66;95066.91;5136772;27;20035;-74
2022/07/23 01:52:32;;;;;;;7.35;5.55;;;;;;;19.37;53.69;95077.41;5153782;27;20054;-74
2022/07/23 01:54:58;;;;;;;10.18;5.47;;;;;;;19.32;53.73;95083.19;5155369;27;20038;-74
2022/07/23 01:57:23;;;;;;;8.20;5.68;;;;;;;19.33;53.52;95078.72;5136484;27;20026;-74
2022/07/23 01:59:48;;;;;;;6.32;5.22;;;;;;;19.26;53.69;95096.25;5136217;27;20051;-74
2022/07/23 02:02:14;;;;;;;7.93;5.57;;;;;;;19.27;53.60;95092.59;5136199;27;20027;-74
2022/07/23 02:04:39;;;;;;;7.50;5.28;;;;;;;19.00;54.51;95097.38;5118958;27;20038;-74
2022/07/23 02:07:05;;;;;;;6.65;5.63;;;;;;;18.96;54.74;95093.41;5153557;27;20030;-74
2022/07/23 02:09:30;;;;;;;7.25;5.70;;;;;;;18.89;54.72;95079.31;5153467;27;20038;-74
2022/07/23 02:11:56;;;;;;;6.35;5.43;;;;;;;18.91;55.01;95101.00;5136187;27;20025;-74
2022/07/23 02:14:21;;;;;;;9.45;6.05;;;;;;;18.92;54.77;95092.13;5136045;27;20027;-74
2022/07/23 02:16:47;;;;;;;6.95;5.32;;;;;;;18.95;54.87;95091.78;5152812;27;20416;-74
2022/07/23 02:19:12;;;;;;;9.45;5.55;;;;;;;18.86;55.16;95092.78;5149574;27;20027;-74
2022/07/23 02:21:38;;;;;;;7.30;5.60;;;;;;;18.87;55.17;95097.09;5115196;27;20035;-74
2022/07/23 02:24:04;;;;;;;8.55;6.10;;;;;;;18.94;55.02;95098.03;5098301;27;20035;-74
2022/07/23 02:26:32;;;;;;;6.15;5.53;;;;;;;18.89;55.21;95088.03;5132424;27;20038;-74
2022/07/23 02:28:57;;;;;;;7.53;5.80;;;;;;;18.91;55.21;95091.28;5115590;27;20530;-74
2022/07/23 02:31:23;;;;;;;7.20;5.78;;;;;;;18.89;55.28;95098.56;5098173;27;20027;-74
2022/07/23 02:33:48;;;;;;;7.15;5.57;;;;;;;18.81;55.29;95079.34;5132224;27;20500;-74
2022/07/23 02:36:13;;;;;;;6.88;5.70;;;;;;;18.84;55.47;95089.53;5133458;27;20027;-74
2022/07/23 02:38:39;;;;;;;7.03;5.70;;;;;;;18.82;55.49;95096.78;5132082;27;20046;-74
2022/07/23 02:41:04;;;;;;;8.23;5.40;;;;;;;18.85;55.36;95088.53;5114895;27;20582;-74
2022/07/23 02:43:30;;;;;;;6.95;5.80;;;;;;;18.81;55.62;95092.50;5114870;27;20038;-74
2022/07/23 02:45:55;;;;;;;6.43;5.57;;;;;;;18.79;55.92;95097.13;5132144;27;20035;-74
2022/07/23 02:48:21;;;;;;;8.82;5.93;;;;;;;18.76;55.74;95093.03;5114399;27;20024;-74
2022/07/23 02:50:46;;;;;;;8.40;5.70;;;;;;;18.71;56.09;95106.66;5131837;27;20039;-74
2022/07/23 02:53:12;;;;;;;9.70;5.78;;;;;;;18.79;55.91;95112.91;5132639;27;20034;-74
2022/07/23 02:55:37;;;;;;;6.90;5.70;;;;;;;18.72;56.17;95108.31;5132866;27;20019;-74
2022/07/23 02:58:02;;;;;;;6.18;5.60;;;;;;;18.79;55.92;95110.28;5114740;27;20087;-74
2022/07/23 03:00:28;;;;;;;6.15;5.30;;;;;;;18.80;55.70;95115.34;5131486;27;20055;-74
2022/07/23 03:02:53;;;;;;;6.75;5.95;;;;;;;18.61;55.64;95100.78;5114588;27;20042;-75
2022/07/23 03:05:19;;;;;;;8.05;5.72;;;;;;;18.79;55.41;95120.81;5133322;27;20031;-75
2022/07/23 03:07:44;;;;;;;8.45;5.75;;;;;;;18.77;55.63;95118.34;5131625;27;20481;-75
2022/07/23 03:10:10;;;;;;;7.30;5.45;;;;;;;18.73;55.97;95117.81;5097369;27;20095;-75
2022/07/23 03:12:35;;;;;;;7.65;5.63;;;;;;;18.72;55.72;95115.34;5132704;27;20023;-75
2022/07/23 03:15:00;;;;;;;7.00;5.68;;;;;;;18.52;56.66;95120.19;5131583;27;20046;-75
2022/07/23 03:17:26;;;;;;;7.20;5.53;;;;;;;18.55;56.11;95114.59;5114260;27;20420;-74
2022/07/23 03:19:51;;;;;;;6.88;5.68;;;;;;;18.53;56.10;95124.47;5123500;27;20038;-75
2022/07/23 03:22:17;;;;;;;6.40;5.80;;;;;;;18.48;56.24;95124.16;5134752;27;20031;-74
2022/07/23 03:24:54;;;;;;;7.03;5.40;;;;;;;18.56;55.83;95124.13;5153066;27;20035;-75
2022/07/23 03:27:29;;;;;;;6.65;5.72;;;;;;;18.50;56.07;95127.44;5136379;27;20102;-75
2022/07/23 03:29:56;;;;;;;6.63;5.45;;;;;;;18.51;56.48;95139.59;5117503;27;20030;-75
2022/07/23 03:32:21;;;;;;;6.82;5.82;;;;;;;18.44;56.41;95133.34;5134765;27;20042;-75
2022/07/23 03:34:47;;;;;;;8.18;5.63;;;;;;;18.42;56.30;95137.97;5134734;27;20030;-75
2022/07/23 03:37:12;;;;;;;8.93;5.95;;;;;;;18.38;56.32;95131.41;5152133;27;20043;-75
2022/07/23 03:39:38;;;;;;;9.30;6.03;;;;;;;18.38;56.78;95140.09;5151841;27;20496;-75
2022/07/23 03:42:03;;;;;;;10.52;6.00;;;;;;;18.47;56.74;95139.13;5134703;27;20070;-75
2022/07/23 03:44:29;;;;;;;7.03;5.47;;;;;;;18.59;56.30;95136.94;5153167;27;20416;-75
2022/07/23 03:46:54;;;;;;;8.90;5.68;;;;;;;18.69;56.13;95132.31;5117284;27;20415;-75
2022/07/23 03:49:20;;;;;;;6.03;5.30;;;;;;;18.72;55.97;95126.72;5151624;27;20054;-75
2022/07/23 03:51:45;;;;;;;9.32;5.78;;;;;;;18.79;55.97;95134.78;5134404;27;20031;-74
2022/07/23 03:54:11;;;;;;;7.75;6.00;;;;;;;18.89;55.75;95142.50;5117121;27;20046;-75
2022/07/23 03:56:36;;;;;;;7.60;6.07;;;;;;;18.91;55.76;95141.31;5151408;27;20027;-75
2022/07/23 03:59:02;;;;;;;6.38;5.70;;;;;;;18.97;55.46;95142.44;5116789;27;20461;-75
2022/07/23 04:01:27;;;;;;;6.63;5.50;;;;;;;19.10;55.13;95153.25;5151371;27;20030;-75
2022/07/23 04:03:53;;;;;;;7.20;5.70;;;;;;;19.01;55.11;95143.75;5152837;27;20035;-75
2022/07/23 04:06:18;;;;;;;6.10;5.50;;;;;;;19.05;55.16;95149.47;5116970;27;20022;-75
2022/07/23 04:08:43;;;;;;;8.20;5.43;;;;;;;19.26;54.67;95149.72;5133999;27;20191;-75
2022/07/23 04:11:09;;;;;;;8.27;5.75;;;;;;;19.74;53.33;95133.81;5134038;27;20026;-74
2022/07/23 04:13:34;;;;;;;8.55;6.10;;;;;;;20.45;51.14;95148.41;5133914;27;20035;-74
2022/07/23 04:16:00;;;;;;;7.20;5.97;;;;;;;21.26;49.01;95139.78;5134027;27;20027;-75
2022/07/23 04:18:25;;;;;;;7.82;5.75;;;;;;;24.11;42.06;95132.13;5133917;27;20030;-75
2022/07/23 04:20:51;;;;;;;7.65;5.65;;;;;;;25.89;37.77;95138.06;5095748;28;20035;-75
2022/07/23 04:23:16;;;;;;;7.57;5.60;;;;;;;26.84;35.93;95129.94;5109801;28;20119;-75
2022/07/23 04:25:42;;;;;;;6.07;5.35;;;;;;;27.97;33.76;95133.94;5109918;28;20038;-75
2022/07/23 04:28:08;;;;;;;7.32;5.30;;;;;;;28.99;31.54;95134.75;5109768;28;20026;-75
2022/07/23 04:30:33;;;;;;;6.55;5.40;;;;;;;29.62;30.61;95139.31;5109862;28;20058;-75
2022/07/23 04:32:59;;;;;;;8.02;5.38;;;;;;;30.35;29.66;95137.72;5109989;28;20023;-75
2022/07/23 04:35:24;;;;;;;8.90;5.57;;;;;;;31.11;28.61;95140.75;5111533;28;20032;-75
2022/07/23 04:37:49;;;;;;;7.30;4.80;;;;;;;31.61;26.74;95142.47;5109854;28;20019;-76
2022/07/23 04:40:15;;;;;;;9.35;5.78;;;;;;;32.20;26.23;95146.34;5094796;28;20080;-75
2022/07/23 04:42:41;;;;;;;9.15;6.00;;;;;;;32.53;26.39;95150.69;5096752;28;20038;-75
2022/07/23 04:45:07;;;;;;;8.77;5.90;;;;;;;33.02;25.72;95149.72;5114040;28;20039;-75
2022/07/23 04:47:32;;;;;;;7.75;5.70;;;;;;;33.28;25.19;95146.09;5115264;28;20031;-75
2022/07/23 04:49:58;;;;;;;7.82;4.88;;;;;;;33.79;24.34;95149.03;5115272;28;20035;-75
2022/07/23 04:52:23;;;;;;;7.22;5.13;;;;;;;33.92;24.65;95154.97;5113725;28;20027;-75
2022/07/23 04:54:49;;;;;;;5.50;4.88;;;;;;;34.09;24.29;95146.69;5113772;28;20437;-75
2022/07/23 04:57:14;;;;;;;5.82;5.22;;;;;;;34.10;24.06;95149.13;5096556;28;20059;-76
2022/07/23 04:59:40;;;;;;;8.48;5.68;;;;;;;33.63;24.69;95144.66;5096406;28;20070;-75
2022/07/23 05:02:05;;;;;;;7.78;5.30;;;;;;;30.84;28.58;95150.53;5096819;28;20097;-75
2022/07/23 05:04:31;;;;;;;8.85;5.70;;;;;;;29.37;31.04;95153.78;5113431;28;20027;-75
2022/07/23 05:06:57;;;;;;;7.95;6.05;;;;;;;28.44;32.45;95154.59;5096577;28;20076;-75
2022/07/23 05:09:22;;;;;;;7.40;5.50;;;;;;;27.52;33.89;95152.97;5113247;28;20030;-75
2022/07/23 05:11:48;;;;;;;8.73;5.95;;;;;;;27.17;34.80;95158.13;5096401;28;20031;-75
2022/07/23 05:14:13;;;;;;;6.25;5.57;;;;;;;26.82;35.86;95161.31;5114638;28;20042;-75
2022/07/23 05:16:39;;;;;;;7.43;5.40;;;;;;;26.44;36.33;95153.41;5113291;28;20080;-75
2022/07/23 05:19:04;;;;;;;6.90;5.80;;;;;;;26.11;36.99;95161.66;5100443;27;20193;-75
2022/07/23 05:21:30;;;;;;;7.20;5.85;;;;;;;25.83;37.75;95158.34;5134867;27;20046;-75
2022/07/23 05:23:55;;;;;;;6.43;5.80;;;;;;;25.55;38.53;95160.53;5133236;27;20034;-75
2022/07/23 05:26:21;;;;;;;7.15;5.80;;;;;;;25.49;39.05;95164.00;5134845;27;20030;-75
2022/07/23 05:28:46;;;;;;;7.55;5.68;;;;;;;25.45;38.94;95163.63;5133522;27;20501;-75
2022/07/23 05:31:12;;;;;;;7.25;5.88;;;;;;;25.29;39.09;95166.75;5116319;27;20015;-75
2022/07/23 05:33:37;;;;;;;9.85;6.30;;;;;;;25.08;39.61;95173.13;5133428;27;20046;-75
2022/07/23 05:36:03;;;;;;;8.02;5.88;;;;;;;25.03;39.85;95168.44;5133745;27;20480;-75
2022/07/23 05:38:29;;;;;;;6.72;5.80;;;;;;;25.16;39.70;95172.94;5116173;27;20102;-75
2022/07/23 05:40:54;;;;;;;8.75;5.63;;;;;;;25.14;39.73;95169.63;5133164;27;20390;-76
2022/07/23 05:43:20;;;;;;;7.95;5.82;;;;;;;25.07;39.69;95166.16;5115952;27;20035;-75
2022/07/23 05:45:45;;;;;;;6.78;5.43;;;;;;;25.13;40.25;95160.84;5133182;27;20020;-75
2022/07/23 05:48:11;;;;;;;8.55;5.60;;;;;;;25.04;39.62;95158.59;5116105;27;20027;-75
2022/07/23 05:50:36;;;;;;;6.45;5.65;;;;;;;25.08;40.75;95162.50;5115610;27;20031;-75
2022/07/23 05:53:01;;;;;;;8.13;5.78;;;;;;;25.08;40.37;95157.19;5133649;27;20023;-75
2022/07/23 05:55:28;;;;;;;7.97;5.68;;;;;;;25.24;40.19;95159.41;5099038;27;20035;-75
2022/07/23 05:57:55;;;;;;;7.25;5.40;;;;;;;25.37;40.33;95161.19;5115872;27;20390;-76
2022/07/23 06:00:21;;;;;;;8.52;5.75;;;;;;;25.48;40.07;95162.38;5132628;27;20046;-75
2022/07/23 06:02:46;;;;;;;8.75;5.80;;;;;;;25.19;39.80;95173.31;5115774;27;20030;-75
2022/07/23 06:05:12;;;;;;;9.43;5.93;;;;;;;25.44;39.89;95167.31;5115866;27;20390;-75
2022/07/23 06:07:37;;;;;;;8.77;6.47;;;;;;;25.56;40.61;95159.47;5134100;27;20019;-75
2022/07/23 06:10:03;;;;;;;16.83;6.63;;;;;;;25.75;39.46;95163.06;5115817;27;20089;-75
2022/07/23 06:12:29;;;;;;;10.60;5.88;;;;;;;25.80;39.52;95155.28;5115755;27;20035;-75
2022/07/23 06:14:54;;;;;;;14.65;6.68;;;;;;;25.75;40.13;95157.75;5132781;27;20089;-75
2022/07/23 06:17:20;;;;;;;12.43;6.35;;;;;;;25.97;39.86;95164.41;5133869;27;20016;-75
2022/07/23 06:19:45;;;;;;;11.57;5.97;;;;;;;26.04;39.85;95153.72;5134032;27;20031;-75
2022/07/23 06:22:11;;;;;;;13.40;6.50;;;;;;;26.10;40.38;95150.19;5132475;27;20027;-75
2022/07/23 06:24:36;;;;;;;10.27;6.22;;;;;;;26.15;39.00;95153.03;5115427;27;20042;-75
2022/07/23 06:27:02;;;;;;;11.25;5.70;;;;;;;26.22;39.07;95151.13;5133538;27;20450;-75
2022/07/23 06:29:27;;;;;;;11.10;5.90;;;;;;;26.26;38.69;95144.34;5130116;27;20034;-75
2022/07/23 06:31:53;;;;;;;11.57;6.25;;;;;;;26.40;39.25;95144.25;5130171;27;20023;-75
2022/07/23 06:34:18;;;;;;;10.75;6.18;;;;;;;26.47;38.55;95142.34;5113247;27;20035;-75
2022/07/23 06:36:44;;;;;;;12.02;6.07;;;;;;;26.47;38.20;95151.16;5095969;27;20025;-78
2022/07/23 06:39:09;;;;;;;12.25;5.97;;;;;;;26.73;38.69;95151.97;5112970;27;20031;-77
2022/07/23 06:41:34;;;;;;;10.10;5.50;;;;;;;26.90;37.43;95146.88;5113286;27;20027;-78
2022/07/23 06:44:00;;;;;;;11.00;5.90;;;;;;;27.00;37.17;95146.38;5131169;27;20503;-78
2022/07/23 06:46:25;;;;;;;12.65;5.47;;;;;;;26.88;37.26;95151.63;5115008;27;20049;-75
2022/07/23 06:48:51;;;;;;;15.60;6.35;;;;;;;26.95;36.93;95144.38;5133260;27;20099;-75
2022/07/23 06:51:16;;;;;;;9.68;6.13;;;;;;;26.86;37.08;95143.03;5131985;27;20319;-76
2022/07/23 06:53:42;;;;;;;12.93;6.00;;;;;;;27.06;36.83;95148.97;5131952;27;20042;-75
2022/07/23 06:56:07;;;;;;;9.35;6.03;;;;;;;27.02;36.65;95144.28;5131047;27;20443;-76
2022/07/23 06:58:33;;;;;;;9.85;5.95;;;;;;;26.91;36.57;95138.69;5131704;27;20126;-75
2022/07/23 07:00:58;;;;;;;9.68;5.80;;;;;;;26.84;35.19;95139.78;5097608;27;20051;-75
2022/07/23 07:03:24;;;;;;;8.07;5.22;;;;;;;27.11;36.13;95141.13;5096457;27;20873;-75
2022/07/23 07:05:49;;;;;;;14.50;6.10;;;;;;;27.38;35.62;95138.97;5130268;27;20122;-76
2022/07/23 07:08:15;;;;;;;11.23;6.15;;;;;;;27.58;35.12;95141.44;5114431;27;20031;-75
2022/07/23 07:10:40;;;;;;;10.70;5.75;;;;;;;27.66;34.32;95142.13;5132716;27;20062;-75
2022/07/23 07:13:06;;;;;;;10.70;5.50;;;;;;;27.84;35.04;95129.59;5097304;27;20030;-75
2022/07/23 07:15:31;;;;;;;8.85;6.68;;;;;;;27.99;34.18;95137.19;5114309;27;20030;-75
2022/07/23 07:17:57;;;;;;;11.00;5.82;;;;;;;28.18;34.71;95127.25;5131387;27;20019;-76
2022/07/23 07:20:23;;;;;;;10.15;5.63;;;;;;;28.41;33.19;95134.47;5131636;27;20295;-75
2022/07/23 07:22:49;;;;;;;9.50;5.65;;;;;;;28.45;32.95;95130.34;5131256;27;20023;-75
2022/07/23 07:25:14;;;;;;;9.50;5.80;;;;;;;28.53;32.59;95129.19;5097355;27;20100;-75
2022/07/23 07:27:40;;;;;;;10.50;5.65;;;;;;;28.67;31.63;95119.09;5131301;27;20420;-76
2022/07/23 07:30:06;;;;;;;9.88;5.60;;;;;;;28.86;32.46;95123.28;5114185;27;20084;-75
2022/07/23 07:32:36;;;;;;;9.10;5.57;;;;;;;29.05;32.50;95131.16;5132368;27;20027;-76
2022/07/23 07:35:02;;;;;;;;;;;;;;;29.17;32.13;95122.09;5131621;27;20035;-75
2022/07/23 07:37:27;;;;;;;12.35;6.35;;;;;;;29.23;31.34;95119.53;5132285;27;19918;-75
2022/07/23 07:39:53;;;;;;;7.32;6.10;;;;;;;29.35;30.21;95122.97;5132607;27;20525;-75
2022/07/23 07:42:18;;;;;;;10.02;6.55;;;;;;;29.40;31.27;95109.72;5132249;27;20039;-75
2022/07/23 07:44:43;;;;;;;12.32;5.88;;;;;;;29.52;31.29;95110.47;5113986;27;20500;-75
2022/07/23 07:47:09;;;;;;;10.82;6.40;;;;;;;29.70;31.59;95109.53;5132203;27;20386;-75
2022/07/23 07:49:34;;;;;;;7.65;5.80;;;;;;;29.87;30.79;95106.88;5096619;27;20435;-75
2022/07/23 07:52:00;;;;;;;8.15;6.88;;;;;;;29.96;29.21;95099.25;5113876;27;20058;-75
2022/07/23 07:54:25;;;;;;;10.30;6.20;;;;;;;30.01;29.00;95110.06;5132324;27;20042;-75
2022/07/23 07:56:51;;;;;;;10.48;6.05;;;;;;;29.95;28.94;95100.28;5113762;28;20033;-75
2022/07/23 07:59:16;;;;;;;10.32;6.50;;;;;;;30.09;29.52;95109.66;5131872;27;20062;-74
2022/07/23 08:01:41;;;;;;;10.27;6.28;;;;;;;30.27;30.34;95104.09;5113608;27;20030;-75
2022/07/23 08:04:07;;;;;;;10.50;6.00;;;;;;;30.33;29.67;95096.16;5113524;27;20046;-75
2022/07/23 08:06:32;;;;;;;6.30;5.43;;;;;;;30.53;29.11;95106.38;5130646;27;20515;-75
2022/07/23 08:08:58;;;;;;;11.75;5.63;;;;;;;30.67;28.17;95108.47;5096497;27;20035;-74
2022/07/23 08:11:23;;;;;;;7.75;5.72;;;;;;;30.76;26.94;95100.00;5131867;27;20404;-75
2022/07/23 08:13:49;;;;;;;8.48;5.57;;;;;;;30.76;26.04;95094.63;5113126;27;20072;-75
2022/07/23 08:16:14;;;;;;;11.18;6.10;;;;;;;30.79;26.18;95096.84;5113304;28;20083;-75
2022/07/23 08:18:40;;;;;;;12.38;5.63;;;;;;;30.75;25.78;95088.47;5113282;28;20031;-75
2022/07/23 08:21:05;;;;;;;12.32;5.40;;;;;;;30.83;26.68;95095.31;5130592;27;20103;-74
2022/07/23 08:23:31;;;;;;;8.98;5.72;;;;;;;30.85;27.44;95088.66;5130281;28;20034;-74
2022/07/23 08:25:57;;;;;;;14.55;5.70;;;;;;;30.89;27.01;95087.06;5096335;28;20051;-74
2022/07/23 08:28:22;;;;;;;12.35;5.68;;;;;;;30.95;27.23;95087.97;5113665;28;20377;-75
2022/07/23 08:30:48;;;;;;;11.82;6.40;;;;;;;31.09;27.54;95091.09;5113298;28;20042;-74
2022/07/23 08:33:14;;;;;;;10.52;5.75;;;;;;;31.22;26.69;95092.59;5113204;28;20034;-75
2022/07/23 08:35:42;;;;;;;9.95;5.97;;;;;;;31.30;27.16;95098.34;5130361;28;20484;-75
2022/07/23 08:38:08;;;;;;;8.07;5.82;;;;;;;31.34;26.71;95095.97;5130301;28;20039;-75
2022/07/23 08:40:36;;;;;;;9.20;6.50;;;;;;;31.35;27.59;95086.88;5130221;28;20026;-75
2022/07/23 08:43:05;;;;;;;8.85;5.90;;;;;;;31.42;25.80;95087.50;5130298;28;20038;-75
2022/07/23 08:45:31;;;;;;;13.10;5.93;;;;;;;31.51;26.35;95082.50;5113326;28;20114;-74
2022/07/23 08:48:00;;;;;;;10.35;6.25;;;;;;;31.65;26.75;95089.13;5096210;28;20138;-75
2022/07/23 08:50:26;;;;;;;9.73;5.93;;;;;;;31.73;25.68;95085.97;5097010;28;20118;-75
2022/07/23 08:52:52;;;;;;;11.40;5.88;;;;;;;31.82;26.69;95086.34;5113170;28;20363;-74
2022/07/23 08:55:18;;;;;;;9.82;5.95;;;;;;;31.93;26.07;95084.56;5113074;28;20041;-75
2022/07/23 08:57:44;;;;;;;14.88;5.65;;;;;;;31.98;25.99;95080.06;5113134;28;20031;-75
2022/07/23 09:00:10;;;;;;;16.30;5.85;;;;;;;32.05;25.58;95082.53;5113073;28;20092;-75
2022/07/23 09:02:40;;;;;;;12.57;6.65;;;;;;;32.11;25.65;95075.34;5112989;28;20035;-75
2022/07/23 09:05:06;;;;;;;11.10;6.35;;;;;;;32.07;25.29;95083.09;5130313;28;20036;-75
2022/07/23 09:07:31;;;;;;;10.93;6.78;;;;;;;32.12;26.13;95082.31;5130399;28;20399;-74
2022/07/23 09:10:08;;;;;;;10.75;5.85;;;;;;;31.93;24.18;95071.97;5130173;28;20035;-74
2022/07/23 09:12:33;;;;;;;8.63;5.90;;;;;;;31.95;23.84;95077.06;5130090;28;20057;-74
2022/07/23 09:15:04;;;;;;;10.93;5.90;;;;;;;32.01;23.94;95063.44;5096099;28;20035;-75
2022/07/23 09:17:29;;;;;;;10.75;6.30;;;;;;;32.09;25.57;95072.09;5130052;28;20027;-74
2022/07/23 09:19:55;;;;;;;12.90;6.03;;;;;;;32.13;26.08;95078.59;5095814;28;20035;-75
2022/07/23 09:22:26;;;;;;;8.57;5.75;;;;;;;32.26;25.58;95072.75;5127996;28;20035;-75
2022/07/23 09:25:14;;;;;;;12.35;6.35;;;;;;;32.35;25.35;95071.25;5129958;28;20501;-75
2022/07/23 09:27:48;;;;;;;13.70;6.50;;;;;;;32.43;23.83;95069.94;5132185;27;20062;-74
2022/07/23 09:30:14;;;;;;;13.88;5.93;;;;;;;32.51;23.44;95068.66;5135219;27;20472;-74
2022/07/23 09:32:40;;;;;;;12.07;6.50;;;;;;;32.52;23.25;95068.44;5116333;27;20019;-75
2022/07/23 09:35:06;;;;;;;8.90;5.93;;;;;;;32.51;22.35;95060.59;5133552;27;20027;-75
2022/07/23 09:37:32;;;;;;;11.77;6.05;;;;;;;32.59;23.13;95062.81;5116371;27;20448;-75
2022/07/23 09:40:08;;;;;;;13.68;6.10;;;;;;;32.70;22.72;95059.91;5116255;27;20035;-75
2022/07/23 09:42:34;;;;;;;12.73;6.32;;;;;;;32.82;22.99;95056.22;5133805;27;20074;-74
2022/07/23 09:45:01;;;;;;;11.68;6.10;;;;;;;32.88;22.60;95047.13;5116262;27;20493;-75
2022/07/23 09:47:31;;;;;;;8.68;5.78;;;;;;;32.92;23.45;95049.03;5116128;27;20023;-74
2022/07/23 09:50:05;;;;;;;10.40;5.75;;;;;;;32.91;21.22;95035.84;5133360;27;20042;-75
2022/07/23 09:52:34;;;;;;;11.57;6.22;;;;;;;33.11;22.26;95045.91;5116737;27;20046;-74
2022/07/23 09:55:01;;;;;;;11.23;5.55;;;;;;;33.08;20.64;95041.06;5116303;27;20039;-74
2022/07/23 09:57:27;;;;;;;10.85;5.60;;;;;;;33.11;21.66;95040.53;5133042;27;20027;-75
2022/07/23 09:59:52;;;;;;;11.40;6.38;;;;;;;33.21;21.49;95043.28;5133002;27;20104;-75
2022/07/23 10:02:18;;;;;;;14.27;6.53;;;;;;;33.25;21.06;95036.28;5132945;27;20027;-74
2022/07/23 10:04:44;;;;;;;14.25;6.28;;;;;;;33.29;21.19;95028.47;5115755;27;20038;-74
2022/07/23 10:07:10;;;;;;;12.20;6.90;;;;;;;33.41;20.95;95025.56;5132892;27;20087;-75
2022/07/23 10:09:38;;;;;;;14.13;6.05;;;;;;;33.40;21.65;95026.63;5132886;27;20043;-75
2022/07/23 10:14:38;;;;;;;14.88;6.05;;;;;;;33.38;21.10;95003.47;5132038;27;20110;-75
2022/07/23 10:17:03;;;;;;;10.60;6.15;;;;;;;33.56;21.89;95020.22;5145654;27;20034;-74
2022/07/23 10:19:29;;;;;;;12.77;6.40;;;;;;;33.61;21.98;95022.94;5154621;27;20035;-74
2022/07/23 10:21:57;;;;;;;10.07;6.05;;;;;;;33.64;22.14;95019.72;5152748;27;20489;-74
2022/07/23 10:25:00;;;;;;;12.02;6.00;;;;;;;33.73;21.99;95018.09;5135979;27;20038;-74
2022/07/23 10:27:26;;;;;;;9.25;6.00;;;;;;;33.80;22.07;95010.56;5152750;27;20118;-75
2022/07/23 10:30:04;;;;;;;10.07;6.18;;;;;;;33.92;22.60;95010.31;5154360;27;20540;-74
2022/07/23 10:33:07;;;;;;;12.80;6.20;;;;;;;33.98;21.84;94998.44;5153517;27;20027;-74
2022/07/23 10:36:13;;;;;;;10.75;5.78;;;;;;;34.04;21.72;95001.94;5153427;27;20058;-74
2022/07/23 10:39:05;;;;;;;9.85;6.13;;;;;;;34.14;21.25;95003.88;5152478;27;20046;-75
2022/07/23 10:41:40;;;;;;;9.38;5.75;;;;;;;34.15;20.48;94997.41;5154000;27;20054;-74
2022/07/23 10:44:38;;;;;;;11.90;6.15;;;;;;;34.20;21.00;94997.41;5152585;27;20039;-75
2022/07/23 10:49:48;;;;;;;12.68;6.00;;;;;;;34.17;19.52;94990.66;5153069;27;20110;-74
2022/07/23 10:52:13;;;;;;;13.40;6.20;;;;;;;34.23;19.92;94981.47;5135419;27;20031;-74
2022/07/23 10:54:46;;;;;;;11.40;6.13;;;;;;;34.26;20.06;94980.13;5153334;27;20110;-74
2022/07/23 10:57:12;;;;;;;12.48;6.07;;;;;;;34.29;18.93;94976.09;5136409;27;20056;-74
2022/07/23 11:02:34;;;;;;;12.48;6.25;;;;;;;34.30;20.00;94966.91;5153955;27;20082;-74
2022/07/23 11:05:10;;;;;;;11.15;6.00;;;;;;;34.42;20.03;94970.13;5135231;27;20035;-74
2022/07/23 11:07:37;;;;;;;11.23;6.00;;;;;;;34.43;20.38;94958.25;5134670;27;20114;-75
2022/07/23 11:10:03;;;;;;;14.13;5.45;;;;;;;34.50;17.25;94961.50;5117077;27;20031;-75
2022/07/23 11:12:29;;;;;;;14.32;5.85;;;;;;;34.50;16.52;94956.09;5152534;27;20023;-74
2022/07/23 11:15:07;;;;;;;12.23;6.07;;;;;;;34.54;17.20;94956.34;5153809;27;20392;-74
2022/07/23 11:17:34;;;;;;;11.48;5.05;;;;;;;34.63;17.68;94949.34;5153474;27;20023;-75
2022/07/23 11:20:08;;;;;;;11.40;5.30;;;;;;;34.76;18.07;94953.34;5135223;27;20580;-74
2022/07/23 11:22:49;;;;;;;11.32;5.15;;;;;;;34.85;17.48;94944.41;5153299;27;20030;-74
2022/07/23 11:25:21;;;;;;;10.52;5.57;;;;;;;34.98;18.66;94944.88;5135206;27;20465;-75
2022/07/23 11:27:47;;;;;;;10.27;5.38;;;;;;;35.03;18.59;94937.56;5152835;27;20685;-74
2022/07/23 11:30:27;;;;;;;16.08;5.82;;;;;;;35.14;18.48;94941.06;5134970;27;20023;-75
2022/07/23 11:33:08;;;;;;;11.95;5.10;;;;;;;35.14;17.48;94943.75;5153190;27;20019;-74
2022/07/23 11:35:40;;;;;;;10.00;5.20;;;;;;;35.19;16.09;94935.63;5152985;27;20035;-75
2022/07/23 11:38:30;;;;;;;14.50;5.82;;;;;;;35.20;15.34;94931.03;5135237;27;20155;-75